Time;durP1;ratioP1;P1;durP2;ratioP2;P2;SDS_P1;SDS_P2;PMS_P1;PMS_P2;Temp;Humidity;BMP_temperature;BMP_pressure;BME280_temperature;BME280_humidity;BME280_pressure;Samples;Min_cycle;Max_cycle;Signal;HPM_P1;HPM_P2
2022/11/06 00:00:15;;;;;;;5.60;3.60;;;10.50;99.90;;;;;;5040145;28;20460;-82
2022/11/06 00:02:42;;;;;;;7.13;3.63;;;10.50;99.90;;;;;;5035016;28;20880;-83
2022/11/06 00:07:55;;;;;;;4.10;2.50;;;10.50;99.90;;;;;;5033262;28;20501;-82
2022/11/06 00:10:22;;;;;;;6.40;3.63;;;10.50;99.90;;;;;;5040890;28;20468;-82
2022/11/06 00:12:49;;;;;;;7.83;2.63;;;10.60;99.90;;;;;;5039913;28;20539;-82
2022/11/06 00:15:16;;;;;;;5.90;2.30;;;10.60;99.90;;;;;;5041060;28;20547;-81
2022/11/06 00:17:43;;;;;;;7.50;2.63;;;10.60;99.90;;;;;;5040927;28;20509;-80
2022/11/06 00:20:12;;;;;;;6.23;3.23;;;10.60;99.90;;;;;;5050855;28;20483;-82
2022/11/06 00:22:39;;;;;;;5.47;3.50;;;10.60;99.90;;;;;;5038842;28;20518;-83
2022/11/06 00:25:06;;;;;;;4.57;2.70;;;10.50;99.90;;;;;;5040365;28;20476;-83
2022/11/06 00:27:36;;;;;;;6.67;2.60;;;10.40;99.90;;;;;;5038187;28;20491;-83
2022/11/06 00:30:04;;;;;;;3.73;2.23;;;10.50;99.90;;;;;;5039315;28;20460;-83
2022/11/06 00:32:31;;;;;;;5.30;2.47;;;10.60;99.90;;;;;;5039697;28;20558;-82
2022/11/06 00:34:58;;;;;;;5.00;2.43;;;10.60;99.90;;;;;;5036777;28;20467;-81
2022/11/06 00:37:26;;;;;;;4.77;3.50;;;10.60;99.90;;;;;;5040120;28;20827;-83
2022/11/06 00:39:53;;;;;;;8.43;3.93;;;10.60;99.90;;;;;;5039228;28;20472;-83
2022/11/06 00:42:19;;;;;;;5.73;2.80;;;10.40;99.90;;;;;;5031322;28;20540;-83
2022/11/06 00:44:46;;;;;;;3.83;2.37;;;10.40;99.90;;;;;;5039927;28;20463;-81
2022/11/06 00:47:13;;;;;;;7.07;2.93;;;10.40;99.90;;;;;;5039281;28;20491;-84
2022/11/06 00:49:40;;;;;;;5.73;3.10;;;10.30;99.90;;;;;;5032083;28;20457;-83
2022/11/06 00:52:07;;;;;;;6.63;3.57;;;10.30;99.90;;;;;;5019649;28;20560;-81
2022/11/06 00:54:35;;;;;;;4.70;2.80;;;10.20;99.90;;;;;;5036337;28;20454;-81
2022/11/06 00:57:02;;;;;;;7.40;2.83;;;10.30;99.90;;;;;;5038489;28;20451;-83
2022/11/06 00:59:28;;;;;;;9.53;2.30;;;10.20;99.90;;;;;;5034179;28;20540;-82
2022/11/06 01:01:55;;;;;;;4.77;2.70;;;10.20;99.90;;;;;;5017800;28;20482;-80
2022/11/06 01:04:24;;;;;;;4.93;2.67;;;10.20;99.90;;;;;;5034566;28;20543;-83
2022/11/06 01:06:55;;;;;;;3.80;2.77;;;10.20;99.90;;;;;;5038882;28;20562;-83
2022/11/06 01:09:24;;;;;;;3.00;1.97;;;10.10;99.90;;;;;;5037178;28;20428;-81
2022/11/06 01:11:54;;;;;;;3.73;2.10;;;10.10;99.90;;;;;;5038845;28;20490;-82
2022/11/06 01:14:22;;;;;;;5.47;2.50;;;10.10;99.90;;;;;;5038057;28;20448;-82
2022/11/06 01:16:50;;;;;;;6.73;2.50;;;10.10;99.90;;;;;;5039399;28;20544;-82
2022/11/06 01:19:18;;;;;;;4.20;2.67;;;10.10;99.90;;;;;;5029172;28;20475;-82
2022/11/06 01:21:48;;;;;;;4.63;2.30;;;10.10;99.90;;;;;;5018770;28;20564;-81
2022/11/06 01:24:17;;;;;;;4.83;2.43;;;10.10;99.90;;;;;;5032885;28;20445;-83
2022/11/06 01:26:45;;;;;;;5.10;2.33;;;10.10;99.90;;;;;;5038262;28;20455;-81
2022/11/06 01:29:15;;;;;;;2.50;1.90;;;10.10;99.90;;;;;;5031692;28;21024;-82
2022/11/06 01:31:42;;;;;;;3.27;1.80;;;10.10;99.90;;;;;;5018957;28;20473;-81
2022/11/06 01:34:11;;;;;;;3.50;2.30;;;10.00;99.90;;;;;;5031152;28;20452;-81
2022/11/06 01:36:38;;;;;;;5.70;2.67;;;10.00;99.90;;;;;;5038734;28;20532;-80
2022/11/06 01:39:07;;;;;;;9.27;2.30;;;10.00;99.90;;;;;;5028012;28;20453;-81
2022/11/06 01:41:37;;;;;;;6.70;2.07;;;10.00;99.90;;;;;;5036026;28;20475;-81
2022/11/06 01:44:06;;;;;;;4.17;2.20;;;9.90;99.90;;;;;;5036510;28;20459;-82
2022/11/06 01:46:36;;;;;;;5.27;2.50;;;9.90;99.90;;;;;;5036755;28;20460;-81
2022/11/06 01:49:06;;;;;;;4.80;2.13;;;9.90;99.90;;;;;;5025032;28;20515;-81
2022/11/06 01:51:36;;;;;;;5.83;4.13;;;9.90;99.90;;;;;;5016951;28;20508;-82
2022/11/06 01:54:07;;;;;;;9.10;2.43;;;10.00;99.90;;;;;;5031249;28;20487;-81
2022/11/06 01:56:36;;;;;;;3.43;2.20;;;9.90;99.90;;;;;;5035593;28;20466;-81
2022/11/06 01:59:04;;;;;;;4.13;2.17;;;9.90;99.90;;;;;;5035649;28;20525;-80
2022/11/06 02:01:31;;;;;;;3.53;1.93;;;10.00;99.90;;;;;;5036354;28;20483;-81
2022/11/06 02:04:05;;;;;;;6.50;2.30;;;10.00;99.90;;;;;;5035655;28;20452;-81
2022/11/06 02:06:32;;;;;;;3.30;1.60;;;10.00;99.90;;;;;;5036794;28;20460;-82
2022/11/06 02:08:59;;;;;;;3.90;2.27;;;10.00;99.90;;;;;;5018850;28;20540;-82
2022/11/06 02:11:26;;;;;;;4.47;1.70;;;10.00;99.90;;;;;;5035919;28;20558;-81
2022/11/06 02:14:02;;;;;;;9.03;3.20;;;10.00;99.90;;;;;;5031617;28;20777;-81
2022/11/06 02:16:42;;;;;;;5.43;2.07;;;9.90;99.90;;;;;;5037120;28;20444;-82
2022/11/06 02:19:43;;;;;;;5.83;2.37;;;9.90;99.90;;;;;;5035288;28;20444;-82
2022/11/06 02:22:20;;;;;;;7.77;3.00;;;9.90;99.90;;;;;;5035883;28;20463;-81
2022/11/06 02:24:56;;;;;;;2.50;1.50;;;9.90;99.90;;;;;;5036276;28;20444;-81
2022/11/06 02:27:26;;;;;;;6.30;2.87;;;9.90;99.90;;;;;;5038000;28;20534;-82
2022/11/06 02:29:59;;;;;;;5.63;2.10;;;10.00;99.90;;;;;;5049659;28;20485;-81
2022/11/06 02:32:32;;;;;;;5.63;1.87;;;9.90;99.90;;;;;;5041002;28;20486;-81
2022/11/06 02:35:02;;;;;;;7.47;2.20;;;9.90;99.90;;;;;;5036707;28;20543;-80
2022/11/06 02:37:32;;;;;;;4.10;1.93;;;9.90;99.90;;;;;;5038263;28;20468;-81
2022/11/06 02:40:02;;;;;;;4.70;1.83;;;9.90;99.90;;;;;;5038718;28;20820;-80
2022/11/06 02:42:33;;;;;;;6.27;2.00;;;9.80;99.90;;;;;;5036834;28;21047;-81
2022/11/06 02:45:01;;;;;;;7.57;2.00;;;9.90;99.90;;;;;;5038490;28;20538;-82
2022/11/06 02:47:32;;;;;;;4.93;2.27;;;10.00;99.90;;;;;;5021197;28;20552;-81
2022/11/06 02:50:05;;;;;;;5.43;2.30;;;9.90;99.90;;;;;;5019294;28;20525;-80
2022/11/06 02:52:36;;;;;;;6.60;2.33;;;10.00;99.90;;;;;;5038509;28;20472;-82
2022/11/06 02:55:08;;;;;;;4.80;2.00;;;9.90;99.90;;;;;;5028763;28;20450;-82
2022/11/06 02:57:41;;;;;;;3.37;1.83;;;10.00;99.90;;;;;;5021006;28;20495;-81
2022/11/06 03:00:11;;;;;;;4.40;1.93;;;10.00;99.90;;;;;;5033234;28;20486;-81
2022/11/06 03:02:42;;;;;;;3.20;1.87;;;10.00;99.90;;;;;;5038309;28;20482;-82
2022/11/06 03:05:15;;;;;;;5.20;2.40;;;10.00;99.90;;;;;;5040380;28;20461;-82
2022/11/06 03:07:48;;;;;;;3.23;1.87;;;10.00;99.90;;;;;;5030438;28;20452;-82
2022/11/06 03:10:16;;;;;;;3.23;1.70;;;10.10;99.90;;;;;;5020274;28;20905;-81
2022/11/06 03:12:52;;;;;;;4.83;1.80;;;10.00;99.90;;;;;;5029339;28;20858;-81
2022/11/06 03:15:26;;;;;;;4.27;1.73;;;9.80;99.90;;;;;;5019367;28;20448;-81
2022/11/06 03:17:59;;;;;;;5.20;1.93;;;9.80;99.90;;;;;;5025467;28;20455;-81
2022/11/06 03:20:34;;;;;;;6.17;1.57;;;9.90;99.90;;;;;;5039000;28;20521;-81
2022/11/06 03:23:10;;;;;;;6.57;1.53;;;9.90;99.90;;;;;;5039579;28;21191;-80
2022/11/06 03:25:44;;;;;;;7.87;1.63;;;9.90;99.90;;;;;;5036615;28;20441;-81
2022/11/06 03:28:18;;;;;;;3.40;1.70;;;9.90;99.90;;;;;;5026557;28;20937;-81
2022/11/06 03:30:50;;;;;;;9.47;1.87;;;9.80;99.90;;;;;;5038577;28;20463;-80
2022/11/06 03:33:23;;;;;;;3.13;1.60;;;9.80;99.90;;;;;;5028059;28;20503;-80
2022/11/06 03:35:54;;;;;;;4.77;1.60;;;9.80;99.90;;;;;;5020139;28;20531;-82
2022/11/06 03:38:27;;;;;;;4.83;1.93;;;9.80;99.90;;;;;;5037913;28;20547;-81
2022/11/06 03:41:00;;;;;;;5.47;1.77;;;9.80;99.90;;;;;;5035921;28;20466;-82
2022/11/06 03:43:33;;;;;;;3.93;1.60;;;9.80;99.90;;;;;;5017855;28;20462;-80
2022/11/06 03:46:02;;;;;;;4.17;1.50;;;9.70;99.90;;;;;;5031251;28;20542;-81
2022/11/06 03:48:33;;;;;;;3.20;1.30;;;9.70;99.90;;;;;;5036769;28;20494;-82
2022/11/06 03:51:04;;;;;;;7.90;2.63;;;9.70;99.90;;;;;;5037509;28;20813;-81
2022/11/06 03:53:37;;;;;;;3.90;2.00;;;9.70;99.90;;;;;;5038098;28;20459;-83
2022/11/06 03:56:08;;;;;;;4.03;1.30;;;9.80;99.90;;;;;;5037909;28;20478;-81
2022/11/06 03:58:39;;;;;;;6.00;3.07;;;9.80;99.90;;;;;;5036988;28;20462;-82
2022/11/06 04:01:08;;;;;;;6.30;2.20;;;9.70;99.90;;;;;;5037409;28;21034;-82
2022/11/06 04:03:41;;;;;;;4.77;1.50;;;9.80;99.90;;;;;;5038259;28;20484;-82
2022/11/06 04:06:15;;;;;;;5.50;1.63;;;9.80;99.90;;;;;;5047003;28;20463;-80
2022/11/06 04:14:18;;;;;;;6.10;2.23;;;9.80;99.90;;;;;;5038020;28;20504;-81
2022/11/06 04:16:48;;;;;;;4.20;1.80;;;9.70;99.90;;;;;;5038102;28;20548;-81
2022/11/06 04:19:17;;;;;;;3.97;1.70;;;9.70;99.90;;;;;;5037024;28;20540;-81
2022/11/06 04:21:59;;;;;;;6.40;1.83;;;9.80;99.90;;;;;;5038187;28;20474;-81
2022/11/06 04:27:29;;;;;;;4.60;1.43;;;9.80;99.90;;;;;;5018897;28;20438;-81
2022/11/06 04:30:04;;;;;;;8.83;2.20;;;9.80;99.90;;;;;;5017868;28;20999;-81
2022/11/06 04:32:41;;;;;;;3.17;2.03;;;9.70;99.90;;;;;;5019178;28;20990;-83
2022/11/06 04:35:17;;;;;;;5.10;1.80;;;9.70;99.90;;;;;;5036692;28;20453;-81
2022/11/06 04:37:51;;;;;;;4.90;1.50;;;9.70;99.90;;;;;;5037603;28;20526;-80
2022/11/06 04:40:23;;;;;;;6.47;1.70;;;9.70;99.90;;;;;;5027412;28;20492;-80
2022/11/06 04:42:55;;;;;;;6.30;1.63;;;9.70;99.90;;;;;;5022088;28;20506;-81
2022/11/06 04:45:27;;;;;;;2.50;1.40;;;9.80;99.90;;;;;;5019436;28;20459;-82
2022/11/06 04:47:54;;;;;;;4.43;1.93;;;9.80;99.90;;;;;;5019337;28;20450;-81
2022/11/06 04:50:24;;;;;;;2.87;1.30;;;9.70;99.90;;;;;;5018558;28;20531;-82
2022/11/06 04:52:52;;;;;;;4.53;1.77;;;9.70;99.90;;;;;;5022511;28;20484;-83
2022/11/06 04:55:21;;;;;;;5.40;1.40;;;9.70;99.90;;;;;;5023071;28;20462;-81
2022/11/06 04:57:49;;;;;;;2.20;1.07;;;9.70;99.90;;;;;;5019776;28;20516;-83
2022/11/06 05:00:17;;;;;;;3.93;1.30;;;9.80;99.90;;;;;;5017277;28;20536;-81
2022/11/06 05:02:46;;;;;;;2.67;1.50;;;9.70;99.90;;;;;;5063247;22;20498;-81
2022/11/06 05:05:13;;;;;;;4.90;1.67;;;9.70;99.90;;;;;;5079551;28;20543;-80
2022/11/06 05:07:41;;;;;;;5.83;1.90;;;9.80;99.90;;;;;;5069853;28;20588;-82
2022/11/06 05:10:09;;;;;;;5.30;1.83;;;9.80;99.90;;;;;;5074109;28;21084;-80
2022/11/06 05:12:36;;;;;;;6.17;1.60;;;9.70;99.90;;;;;;5060507;28;20480;-79
2022/11/06 05:15:02;;;;;;;3.60;1.30;;;9.80;99.90;;;;;;5077470;28;20445;-80
2022/11/06 05:17:29;;;;;;;2.73;1.30;;;9.80;99.90;;;;;;5077855;28;20483;-79
2022/11/06 05:19:57;;;;;;;3.80;1.50;;;9.80;99.90;;;;;;5073582;28;20447;-80
2022/11/06 05:25:09;;;;;;;3.63;1.60;;;9.80;99.90;;;;;;5074637;28;20448;-79
2022/11/06 05:27:35;;;;;;;4.40;1.77;;;9.80;99.90;;;;;;5071745;28;20464;-78
2022/11/06 05:30:02;;;;;;;5.43;1.80;;;9.80;99.90;;;;;;5076205;28;20492;-78
2022/11/06 05:32:29;;;;;;;6.33;1.67;;;9.80;99.90;;;;;;5078213;28;20479;-79
2022/11/06 05:34:57;;;;;;;5.07;1.50;;;9.80;99.90;;;;;;5076396;28;20471;-79
2022/11/06 05:37:24;;;;;;;4.10;1.50;;;9.70;99.90;;;;;;5079303;28;20461;-78
2022/11/06 05:39:51;;;;;;;4.63;1.30;;;9.70;99.90;;;;;;5080529;28;20446;-82
2022/11/06 05:42:18;;;;;;;4.90;2.17;;;9.60;99.90;;;;;;5075506;28;20542;-79
2022/11/06 05:44:45;;;;;;;5.73;2.20;;;9.60;99.90;;;;;;5072588;28;20515;-81
2022/11/06 05:47:11;;;;;;;9.30;2.17;;;9.50;99.90;;;;;;5079057;28;20533;-80
2022/11/06 05:49:38;;;;;;;2.67;1.67;;;9.40;99.90;;;;;;5078583;28;20472;-80
2022/11/06 05:52:06;;;;;;;6.00;1.70;;;9.40;99.90;;;;;;5080108;28;21024;-79
2022/11/06 05:54:33;;;;;;;3.90;1.40;;;9.40;99.90;;;;;;5078914;28;20462;-80
2022/11/06 05:57:00;;;;;;;5.43;1.60;;;9.50;99.90;;;;;;5084830;28;20541;-79
2022/11/06 05:59:27;;;;;;;3.13;1.20;;;9.50;99.90;;;;;;5077608;28;20517;-81
2022/11/06 06:01:54;;;;;;;4.37;1.50;;;9.50;99.90;;;;;;5080646;28;20452;-82
2022/11/06 06:04:20;;;;;;;5.33;1.47;;;9.50;99.90;;;;;;5080177;28;20478;-82
2022/11/06 06:06:47;;;;;;;5.00;1.73;;;9.60;99.90;;;;;;5078415;28;20512;-81
2022/11/06 06:09:16;;;;;;;3.77;1.67;;;9.60;99.90;;;;;;5083985;28;20569;-83
2022/11/06 06:11:42;;;;;;;6.70;1.63;;;9.50;99.90;;;;;;5082571;28;20540;-78
2022/11/06 06:14:09;;;;;;;5.30;1.83;;;9.50;99.90;;;;;;5078225;28;20484;-82
2022/11/06 06:16:36;;;;;;;5.40;1.80;;;9.40;99.90;;;;;;5073028;28;20483;-81
2022/11/06 06:19:03;;;;;;;17.83;3.20;;;9.40;99.90;;;;;;5082468;28;20516;-82
2022/11/06 06:21:30;;;;;;;3.37;1.50;;;9.40;99.90;;;;;;5079411;28;20912;-77
2022/11/06 06:23:56;;;;;;;4.10;1.87;;;9.40;99.90;;;;;;5070462;28;20479;-80
2022/11/06 06:26:25;;;;;;;4.87;2.10;;;9.40;99.90;;;;;;5070303;28;20477;-81
2022/11/06 06:28:51;;;;;;;5.13;1.70;;;9.40;99.90;;;;;;5071485;28;20483;-80
2022/11/06 06:31:18;;;;;;;6.20;1.40;;;9.40;99.90;;;;;;5059573;28;20460;-80
2022/11/06 06:33:45;;;;;;;3.80;1.70;;;9.40;99.90;;;;;;5063226;28;20877;-81
2022/11/06 06:36:12;;;;;;;4.63;1.80;;;9.50;99.90;;;;;;5076967;28;20540;-81
2022/11/06 06:38:39;;;;;;;6.37;2.07;;;9.50;99.90;;;;;;5076910;28;20517;-80
2022/11/06 06:41:07;;;;;;;6.33;1.73;;;9.40;99.90;;;;;;5058982;28;20451;-80
2022/11/06 06:43:36;;;;;;;3.73;1.57;;;9.50;99.90;;;;;;5061773;28;20560;-82
2022/11/06 06:46:05;;;;;;;2.70;1.50;;;9.50;99.90;;;;;;5079745;28;20465;-81
2022/11/06 06:48:33;;;;;;;3.70;2.00;;;9.60;99.90;;;;;;5077600;28;20825;-80
2022/11/06 06:51:01;;;;;;;9.13;1.70;;;9.60;99.90;;;;;;5068065;28;20862;-82
2022/11/06 06:53:28;;;;;;;11.03;1.80;;;9.40;99.90;;;;;;5070080;28;20477;-85
2022/11/06 06:55:57;;;;;;;4.40;1.63;;;9.40;99.90;;;;;;5078406;28;20520;-83
2022/11/06 06:58:24;;;;;;;5.40;1.50;;;9.50;99.90;;;;;;5081901;28;20462;-83
2022/11/06 07:00:52;;;;;;;5.83;1.60;;;9.50;99.90;;;;;;5067013;28;20469;-82
2022/11/06 07:03:19;;;;;;;3.90;2.10;;;9.60;99.90;;;;;;5068667;28;20584;-81
2022/11/06 07:05:46;;;;;;;4.63;1.30;;;9.50;99.90;;;;;;5081882;28;21199;-81
2022/11/06 07:08:13;;;;;;;8.63;1.43;;;9.60;99.90;;;;;;5080515;28;20448;-83
2022/11/06 07:10:40;;;;;;;5.20;1.70;;;9.50;99.90;;;;;;5066554;28;20485;-83
2022/11/06 07:13:07;;;;;;;4.80;1.60;;;9.60;99.90;;;;;;5066279;28;20561;-82
2022/11/06 07:15:33;;;;;;;2.97;1.13;;;9.60;99.90;;;;;;5074970;28;20459;-83
2022/11/06 07:18:06;;;;;;;6.03;1.53;;;9.70;99.90;;;;;;5070705;28;20531;-82
2022/11/06 07:20:34;;;;;;;5.97;1.57;;;9.60;99.90;;;;;;5068635;28;20527;-81
2022/11/06 07:23:05;;;;;;;3.30;1.30;;;9.60;99.90;;;;;;5079123;28;20946;-82
2022/11/06 07:25:32;;;;;;;4.13;1.43;;;9.70;99.90;;;;;;5080494;28;20545;-81
2022/11/06 07:28:01;;;;;;;7.20;1.80;;;9.70;99.90;;;;;;5081158;28;20446;-83
2022/11/06 07:30:28;;;;;;;4.83;1.43;;;9.70;99.90;;;;;;5085778;28;21060;-82
2022/11/06 07:32:54;;;;;;;5.73;2.00;;;9.80;99.90;;;;;;5093207;28;20497;-79
2022/11/06 07:35:23;;;;;;;5.53;1.23;;;9.80;99.90;;;;;;5078739;28;20458;-82
2022/11/06 07:37:49;;;;;;;2.50;1.20;;;9.80;99.90;;;;;;5074559;28;20954;-81
2022/11/06 07:40:16;;;;;;;3.07;1.23;;;9.90;99.90;;;;;;5075471;28;20823;-81
2022/11/06 07:42:43;;;;;;;3.87;1.70;;;9.90;99.90;;;;;;5066752;28;21820;-81
2022/11/06 07:45:10;;;;;;;3.93;1.30;;;10.00;99.90;;;;;;5079494;28;20536;-83
2022/11/06 07:47:37;;;;;;;5.03;1.73;;;9.90;99.90;;;;;;5069854;28;20948;-83
2022/11/06 07:50:05;;;;;;;2.90;1.47;;;10.00;99.90;;;;;;5078342;28;20492;-79
2022/11/06 07:52:33;;;;;;;8.90;1.87;;;10.00;99.90;;;;;;5066971;28;20482;-82
2022/11/06 07:55:00;;;;;;;3.60;1.30;;;10.10;99.90;;;;;;5075274;28;20473;-80
2022/11/06 07:57:27;;;;;;;4.90;1.70;;;10.10;99.90;;;;;;5080229;28;20458;-80
2022/11/06 07:59:54;;;;;;;6.90;1.40;;;10.10;99.90;;;;;;5066065;28;20568;-80
2022/11/06 08:02:21;;;;;;;3.80;1.97;;;10.10;99.90;;;;;;5076708;28;20510;-82
2022/11/06 08:04:47;;;;;;;3.90;1.50;;;10.10;99.90;;;;;;5073500;28;20457;-82
2022/11/06 08:07:14;;;;;;;4.93;1.20;;;10.20;99.90;;;;;;5081432;28;20545;-84
2022/11/06 08:09:42;;;;;;;10.03;1.90;;;10.30;99.90;;;;;;5075144;28;20525;-84
2022/11/06 08:12:09;;;;;;;2.73;1.30;;;10.30;99.90;;;;;;5062213;28;20509;-81
2022/11/06 08:14:36;;;;;;;6.50;1.47;;;10.40;99.90;;;;;;5069460;28;20528;-83
2022/11/06 08:17:03;;;;;;;4.47;1.63;;;10.40;99.90;;;;;;5063390;28;20478;-84
2022/11/06 08:19:30;;;;;;;2.90;1.20;;;10.40;99.90;;;;;;5071391;28;21064;-83
2022/11/06 08:21:56;;;;;;;3.30;1.30;;;10.50;99.90;;;;;;5077833;28;20472;-82
2022/11/06 08:24:23;;;;;;;4.43;1.47;;;10.50;99.90;;;;;;5078831;28;20455;-83
2022/11/06 08:26:52;;;;;;;2.20;1.30;;;10.50;99.90;;;;;;5079996;28;20541;-84
2022/11/06 08:29:18;;;;;;;2.90;1.30;;;10.50;99.90;;;;;;5060515;28;20503;-80
2022/11/06 08:31:45;;;;;;;3.90;1.17;;;10.60;99.90;;;;;;5072767;28;20555;-82
2022/11/06 08:34:12;;;;;;;7.67;1.40;;;10.70;99.90;;;;;;5073493;28;20507;-82
2022/11/06 08:36:43;;;;;;;2.63;1.10;;;10.70;99.90;;;;;;5069104;28;20513;-82
2022/11/06 08:39:11;;;;;;;3.60;1.63;;;10.80;99.90;;;;;;5061214;28;20894;-81
2022/11/06 08:41:38;;;;;;;4.07;1.37;;;10.80;99.90;;;;;;5059010;28;20459;-79
2022/11/06 08:44:06;;;;;;;4.00;1.50;;;10.80;99.90;;;;;;5063538;28;20561;-80
2022/11/06 08:46:33;;;;;;;4.30;1.50;;;10.80;99.90;;;;;;5069695;28;20541;-80
2022/11/06 08:49:00;;;;;;;3.83;1.10;;;10.90;99.90;;;;;;5060731;28;20488;-84
2022/11/06 08:51:27;;;;;;;3.40;1.13;;;10.90;99.90;;;;;;5072926;28;20489;-81
2022/11/06 08:53:54;;;;;;;4.23;1.30;;;11.00;99.90;;;;;;5067917;28;20913;-80
2022/11/06 08:56:21;;;;;;;5.30;1.57;;;11.10;99.90;;;;;;5063018;28;20520;-82
2022/11/06 08:58:47;;;;;;;7.20;1.40;;;11.10;99.90;;;;;;5082173;28;20811;-82
2022/11/06 09:01:16;;;;;;;3.83;1.40;;;11.20;99.90;;;;;;5077847;28;20997;-81
2022/11/06 09:03:43;;;;;;;4.60;1.67;;;11.30;99.90;;;;;;5062994;28;20488;-82
2022/11/06 09:06:09;;;;;;;3.40;1.50;;;11.30;99.90;;;;;;5058955;28;20543;-81
2022/11/06 09:08:36;;;;;;;4.93;1.77;;;11.50;99.90;;;;;;5066587;28;20524;-81
2022/11/06 09:11:07;;;;;;;4.00;1.40;;;11.60;99.90;;;;;;5074449;28;20502;-83
2022/11/06 09:13:34;;;;;;;4.70;1.50;;;11.80;99.90;;;;;;5078759;28;20470;-81
2022/11/06 09:16:01;;;;;;;3.63;1.37;;;11.90;99.90;;;;;;5071356;28;21035;-82
2022/11/06 09:18:29;;;;;;;6.10;1.57;;;12.10;99.90;;;;;;5070617;28;20544;-82
2022/11/06 09:20:56;;;;;;;3.10;1.60;;;12.20;99.90;;;;;;5079289;28;20530;-81
2022/11/06 09:23:23;;;;;;;3.27;1.30;;;12.30;99.90;;;;;;5071734;28;20570;-82
2022/11/06 09:25:50;;;;;;;5.63;1.63;;;12.40;99.90;;;;;;5073643;28;20514;-81
2022/11/06 09:28:17;;;;;;;4.00;1.83;;;12.50;99.90;;;;;;5080368;28;20487;-83
2022/11/06 09:30:44;;;;;;;5.90;1.67;;;12.60;99.90;;;;;;5080780;28;20575;-82
2022/11/06 09:33:11;;;;;;;4.33;1.43;;;12.60;99.90;;;;;;5073982;28;20477;-82
2022/11/06 09:35:39;;;;;;;4.10;1.50;;;12.70;99.90;;;;;;5074851;28;20459;-82
2022/11/06 09:38:08;;;;;;;3.23;1.50;;;12.70;99.90;;;;;;5080299;28;20520;-83
2022/11/06 09:40:37;;;;;;;8.97;1.50;;;12.70;99.90;;;;;;5079901;28;20450;-84
2022/11/06 09:43:15;;;;;;;4.27;1.40;;;12.80;99.90;;;;;;5078684;28;20547;-82
2022/11/06 09:45:43;;;;;;;4.80;1.90;;;12.80;99.90;;;;;;5074034;28;20448;-80
2022/11/06 09:48:20;;;;;;;7.97;2.23;;;12.80;99.90;;;;;;5078168;28;20458;-80
2022/11/06 09:50:54;;;;;;;4.90;1.60;;;12.90;99.90;;;;;;5077200;28;20484;-84
2022/11/06 09:53:27;;;;;;;4.40;1.47;;;13.00;99.90;;;;;;5078279;28;20505;-82
2022/11/06 09:55:56;;;;;;;5.60;1.30;;;13.00;99.90;;;;;;5082645;28;20577;-80
2022/11/06 09:58:28;;;;;;;9.03;2.60;;;13.10;99.90;;;;;;5071277;28;20461;-83
2022/11/06 10:00:55;;;;;;;2.60;1.33;;;13.10;99.90;;;;;;5079214;28;21158;-80
2022/11/06 10:03:29;;;;;;;6.37;1.43;;;13.10;99.90;;;;;;5078288;28;20542;-79
2022/11/06 10:05:57;;;;;;;4.20;1.40;;;13.20;99.90;;;;;;5078493;28;20441;-83
2022/11/06 10:08:27;;;;;;;4.47;1.43;;;13.20;99.90;;;;;;5078258;28;20447;-82
2022/11/06 10:11:02;;;;;;;10.43;2.40;;;13.30;99.90;;;;;;5080800;28;20572;-80
2022/11/06 10:13:49;;;;;;;5.17;1.53;;;13.30;99.90;;;;;;5079543;28;20556;-81
2022/11/06 10:16:26;;;;;;;4.00;1.27;;;13.30;99.90;;;;;;5079929;28;20507;-80
2022/11/06 10:19:02;;;;;;;4.40;1.47;;;13.10;99.90;;;;;;5078769;28;20874;-82
2022/11/06 10:21:41;;;;;;;4.77;1.40;;;13.10;99.90;;;;;;5080047;28;21014;-82
2022/11/06 10:24:21;;;;;;;4.67;1.50;;;13.10;99.90;;;;;;5080745;28;20536;-81
2022/11/06 10:26:53;;;;;;;8.27;2.10;;;13.10;99.90;;;;;;5080244;28;20454;-84
2022/11/06 10:29:41;;;;;;;2.73;1.33;;;13.30;99.90;;;;;;5077492;28;20441;-84
2022/11/06 10:32:31;;;;;;;3.17;1.27;;;13.40;99.90;;;;;;5077810;28;20512;-81
2022/11/06 10:35:01;;;;;;;5.07;1.43;;;13.40;99.90;;;;;;5085217;28;20517;-82
2022/11/06 10:37:35;;;;;;;4.50;1.40;;;13.60;99.90;;;;;;5080777;28;20453;-84
2022/11/06 10:40:06;;;;;;;2.60;1.37;;;13.60;99.90;;;;;;5089152;28;20527;-82
2022/11/06 10:42:37;;;;;;;4.70;1.50;;;13.80;99.90;;;;;;5088510;28;20505;-84
2022/11/06 10:45:11;;;;;;;4.23;1.43;;;13.90;99.90;;;;;;5083949;28;20521;-80
2022/11/06 10:47:44;;;;;;;3.20;1.60;;;14.10;99.90;;;;;;5069190;28;20440;-83
2022/11/06 10:50:14;;;;;;;6.33;2.07;;;14.20;99.90;;;;;;5078365;28;20868;-82
2022/11/06 10:52:51;;;;;;;4.90;1.67;;;14.60;99.90;;;;;;5081511;28;20544;-82
2022/11/06 10:55:48;;;;;;;3.17;1.40;;;14.80;99.90;;;;;;5081870;28;20438;-79
2022/11/06 10:58:18;;;;;;;4.53;1.30;;;15.10;99.90;;;;;;5080301;28;20985;-81
2022/11/06 11:00:45;;;;;;;7.13;1.63;;;15.10;99.90;;;;;;5086418;28;20511;-81
2022/11/06 11:03:23;;;;;;;3.70;1.70;;;15.20;99.90;;;;;;5086120;28;20554;-80
2022/11/06 11:05:50;;;;;;;5.30;1.77;;;15.10;99.90;;;;;;5076695;28;21231;-81
2022/11/06 11:08:36;;;;;;;2.80;2.00;;;15.00;99.90;;;;;;5080472;28;20474;-83
2022/11/06 11:11:05;;;;;;;4.17;1.47;;;15.00;99.90;;;;;;5075468;28;20474;-81
2022/11/06 11:13:33;;;;;;;5.83;1.50;;;15.20;99.90;;;;;;5078140;28;21086;-79
2022/11/06 11:16:01;;;;;;;3.70;1.70;;;16.40;99.90;;;;;;5077833;28;20457;-80
2022/11/06 11:18:31;;;;;;;5.10;1.77;;;18.20;99.90;;;;;;5077391;28;20458;-79
2022/11/06 11:21:07;;;;;;;4.97;1.50;;;19.40;99.90;;;;;;5078415;28;20458;-79
2022/11/06 11:23:49;;;;;;;3.03;1.23;;;19.10;99.90;;;;;;5072581;28;20469;-80
2022/11/06 11:26:23;;;;;;;5.00;1.47;;;19.10;99.90;;;;;;5077481;28;20445;-81
2022/11/06 11:28:55;;;;;;;2.87;1.13;;;18.80;99.90;;;;;;5072621;28;20531;-80
2022/11/06 11:31:32;;;;;;;4.43;1.30;;;17.70;99.90;;;;;;5079580;28;20542;-81
2022/11/06 11:34:01;;;;;;;4.00;1.20;;;17.20;99.90;;;;;;5074518;28;20504;-81
2022/11/06 11:36:47;;;;;;;5.07;1.60;;;16.90;99.90;;;;;;5073902;28;20529;-80
2022/11/06 11:39:18;;;;;;;8.03;1.80;;;16.40;99.90;;;;;;5072397;28;20479;-79
2022/11/06 11:41:45;;;;;;;3.77;1.80;;;15.60;99.90;;;;;;5068285;28;20503;-80
2022/11/06 11:44:16;;;;;;;4.33;1.33;;;15.30;99.90;;;;;;5079854;28;20873;-81
2022/11/06 11:46:48;;;;;;;6.47;1.60;;;15.40;99.90;;;;;;5081621;28;20450;-81
2022/11/06 11:49:28;;;;;;;5.50;1.50;;;15.20;99.90;;;;;;5070545;28;20456;-80
2022/11/06 11:51:55;;;;;;;5.47;1.63;;;15.20;99.90;;;;;;5068117;28;20494;-78
2022/11/06 11:54:27;;;;;;;5.50;2.30;;;14.90;99.90;;;;;;5080685;28;20806;-79
2022/11/06 11:56:56;;;;;;;5.67;2.07;;;14.70;99.90;;;;;;5080167;28;20523;-80
2022/11/06 11:59:26;;;;;;;7.63;2.70;;;14.50;99.90;;;;;;5079963;28;20858;-80
2022/11/06 12:01:54;;;;;;;4.10;1.73;;;14.50;99.90;;;;;;5078958;28;20535;-81
2022/11/06 12:04:25;;;;;;;4.80;1.90;;;14.40;99.90;;;;;;5078538;28;20478;-80
2022/11/06 12:07:01;;;;;;;3.17;1.30;;;14.30;99.90;;;;;;5078022;28;20474;-81
2022/11/06 12:09:33;;;;;;;6.43;1.50;;;14.30;99.90;;;;;;5057574;28;20457;-81
2022/11/06 12:12:01;;;;;;;3.53;1.73;;;14.40;99.90;;;;;;5074445;28;20477;-79
2022/11/06 12:14:34;;;;;;;4.40;1.90;;;14.60;99.90;;;;;;5077165;28;20534;-79
2022/11/06 12:17:14;;;;;;;3.90;1.60;;;14.70;99.90;;;;;;5067627;28;20482;-79
2022/11/06 12:19:45;;;;;;;3.33;1.83;;;14.70;99.90;;;;;;5077141;28;20443;-81
2022/11/06 12:22:18;;;;;;;4.50;1.80;;;14.80;99.90;;;;;;5076875;28;20449;-80
2022/11/06 12:24:52;;;;;;;3.20;1.40;;;14.90;99.90;;;;;;5077720;28;21015;-80
2022/11/06 12:27:23;;;;;;;3.03;1.60;;;15.10;99.90;;;;;;5070036;28;20467;-80
2022/11/06 12:30:02;;;;;;;2.90;1.60;;;15.10;99.90;;;;;;5063876;28;20532;-78
2022/11/06 12:32:41;;;;;;;3.77;1.67;;;15.10;99.90;;;;;;5079548;28;20486;-79
2022/11/06 12:35:17;;;;;;;3.87;1.70;;;15.00;99.90;;;;;;5077898;28;20450;-80
2022/11/06 12:37:51;;;;;;;4.73;1.80;;;14.80;99.90;;;;;;5077322;28;20445;-80
2022/11/06 12:40:22;;;;;;;5.70;1.47;;;14.70;99.90;;;;;;5077710;28;20969;-79
2022/11/06 12:43:02;;;;;;;7.40;2.00;;;14.60;99.90;;;;;;5076494;28;20868;-79
2022/11/06 12:45:40;;;;;;;4.83;1.83;;;14.40;99.90;;;;;;5067976;28;20446;-79
2022/11/06 12:48:20;;;;;;;4.90;1.80;;;14.30;99.90;;;;;;5066455;28;20568;-80
2022/11/06 12:50:54;;;;;;;4.87;1.57;;;14.30;99.90;;;;;;5077062;28;20995;-80
2022/11/06 12:53:34;;;;;;;3.33;1.50;;;14.30;99.90;;;;;;5076131;28;20509;-81
2022/11/06 12:56:12;;;;;;;3.43;1.60;;;14.10;99.90;;;;;;5077957;28;20925;-82
2022/11/06 12:58:58;;;;;;;5.20;2.00;;;14.00;99.90;;;;;;5077870;28;20865;-81
2022/11/06 13:01:41;;;;;;;5.00;1.67;;;14.00;99.90;;;;;;5077671;28;20445;-80
2022/11/06 13:04:20;;;;;;;3.50;1.73;;;14.00;99.90;;;;;;5077214;28;20504;-80
2022/11/06 13:07:10;;;;;;;6.23;1.80;;;14.00;99.90;;;;;;5070417;28;20527;-81
2022/11/06 13:09:44;;;;;;;9.53;2.10;;;13.80;99.90;;;;;;5063350;28;20491;-80
2022/11/06 13:12:21;;;;;;;4.00;1.77;;;13.80;99.90;;;;;;5077603;28;20485;-80
2022/11/06 13:15:00;;;;;;;4.20;1.57;;;13.80;99.90;;;;;;5077026;28;20517;-81
2022/11/06 13:17:32;;;;;;;3.27;1.63;;;13.70;99.90;;;;;;5062199;28;20533;-83
2022/11/06 13:20:07;;;;;;;5.93;1.70;;;13.70;99.90;;;;;;5076635;28;20439;-81